sensor_id;sensor_type;location;lat;lon;timestamp;temperature;humidity
14471;DHT22;7321;50.802;4.336;2022-10-13T00:02:06;15.70;99.90
14471;DHT22;7321;50.802;4.336;2022-10-13T00:04:32;15.70;99.90
14471;DHT22;7321;50.802;4.336;2022-10-13T00:06:58;15.80;99.90
14471;DHT22;7321;50.802;4.336;2022-10-13T00:09:23;15.70;99.90
14471;DHT22;7321;50.802;4.336;2022-10-13T00:11:49;15.60;99.90
14471;DHT22;7321;50.802;4.336;2022-10-13T00:14:15;15.60;99.90
14471;DHT22;7321;50.802;4.336;2022-10-13T00:16:40;15.60;99.90
14471;DHT22;7321;50.802;4.336;2022-10-13T00:19:06;15.60;99.90
14471;DHT22;7321;50.802;4.336;2022-10-13T00:21:32;15.50;99.90
14471;DHT22;7321;50.802;4.336;2022-10-13T00:23:58;15.50;99.90
14471;DHT22;7321;50.802;4.336;2022-10-13T00:26:24;15.50;99.90
14471;DHT22;7321;50.802;4.336;2022-10-13T00:28:50;15.50;99.90
14471;DHT22;7321;50.802;4.336;2022-10-13T00:31:25;15.50;99.90
14471;DHT22;7321;50.802;4.336;2022-10-13T00:33:51;15.50;99.90
14471;DHT22;7321;50.802;4.336;2022-10-13T00:36:18;15.50;99.90
14471;DHT22;7321;50.802;4.336;2022-10-13T00:38:45;15.60;99.90
14471;DHT22;7321;50.802;4.336;2022-10-13T00:41:11;15.60;99.90
14471;DHT22;7321;50.802;4.336;2022-10-13T00:46:20;15.70;99.90
14471;DHT22;7321;50.802;4.336;2022-10-13T00:48:48;15.70;99.90
14471;DHT22;7321;50.802;4.336;2022-10-13T00:51:17;15.70;99.90
14471;DHT22;7321;50.802;4.336;2022-10-13T00:53:46;15.70;99.90
14471;DHT22;7321;50.802;4.336;2022-10-13T00:56:14;15.80;99.90
14471;DHT22;7321;50.802;4.336;2022-10-13T00:58:43;15.60;99.90
14471;DHT22;7321;50.802;4.336;2022-10-13T01:01:09;15.70;99.90
14471;DHT22;7321;50.802;4.336;2022-10-13T01:03:36;15.60;99.90
14471;DHT22;7321;50.802;4.336;2022-10-13T01:06:04;15.60;99.90
14471;DHT22;7321;50.802;4.336;2022-10-13T01:08:30;15.60;99.90
14471;DHT22;7321;50.802;4.336;2022-10-13T01:13:44;15.60;99.90
14471;DHT22;7321;50.802;4.336;2022-10-13T01:16:29;15.60;99.90
14471;DHT22;7321;50.802;4.336;2022-10-13T01:30:38;15.70;99.90
14471;DHT22;7321;50.802;4.336;2022-10-13T01:41:35;15.80;99.90
14471;DHT22;7321;50.802;4.336;2022-10-13T01:44:16;15.80;99.90
14471;DHT22;7321;50.802;4.336;2022-10-13T01:46:45;15.60;99.90
14471;DHT22;7321;50.802;4.336;2022-10-13T01:49:14;15.70;99.90
14471;DHT22;7321;50.802;4.336;2022-10-13T01:51:44;15.60;99.90
14471;DHT22;7321;50.802;4.336;2022-10-13T01:54:10;15.60;99.90
14471;DHT22;7321;50.802;4.336;2022-10-13T01:56:36;15.50;99.90
14471;DHT22;7321;50.802;4.336;2022-10-13T01:59:07;15.60;99.90
14471;DHT22;7321;50.802;4.336;2022-10-13T02:01:54;15.60;99.90
14471;DHT22;7321;50.802;4.336;2022-10-13T02:07:19;15.50;99.90
14471;DHT22;7321;50.802;4.336;2022-10-13T02:10:10;15.50;99.90
14471;DHT22;7321;50.802;4.336;2022-10-13T02:12:50;15.50;99.90
14471;DHT22;7321;50.802;4.336;2022-10-13T02:15:24;15.40;99.90
14471;DHT22;7321;50.802;4.336;2022-10-13T02:17:52;15.30;99.90
14471;DHT22;7321;50.802;4.336;2022-10-13T02:20:19;15.40;99.90
14471;DHT22;7321;50.802;4.336;2022-10-13T02:22:47;15.40;99.90
14471;DHT22;7321;50.802;4.336;2022-10-13T02:25:15;15.40;99.90
14471;DHT22;7321;50.802;4.336;2022-10-13T02:27:41;15.30;99.90
14471;DHT22;7321;50.802;4.336;2022-10-13T02:30:07;15.40;99.90
14471;DHT22;7321;50.802;4.336;2022-10-13T02:32:33;15.40;99.90
14471;DHT22;7321;50.802;4.336;2022-10-13T02:34:59;15.40;99.90
14471;DHT22;7321;50.802;4.336;2022-10-13T02:37:25;15.40;99.90
14471;DHT22;7321;50.802;4.336;2022-10-13T02:39:51;15.40;99.90
14471;DHT22;7321;50.802;4.336;2022-10-13T02:42:16;15.40;99.90
14471;DHT22;7321;50.802;4.336;2022-10-13T02:44:42;15.40;99.90
14471;DHT22;7321;50.802;4.336;2022-10-13T02:47:08;15.40;99.90
14471;DHT22;7321;50.802;4.336;2022-10-13T02:49:33;15.40;99.90
14471;DHT22;7321;50.802;4.336;2022-10-13T02:52:00;15.30;99.90
14471;DHT22;7321;50.802;4.336;2022-10-13T02:54:25;15.30;99.90
14471;DHT22;7321;50.802;4.336;2022-10-13T02:56:51;15.30;99.90
14471;DHT22;7321;50.802;4.336;2022-10-13T02:59:17;15.30;99.90
14471;DHT22;7321;50.802;4.336;2022-10-13T03:01:43;15.30;99.90
14471;DHT22;7321;50.802;4.336;2022-10-13T03:04:10;15.20;99.90
14471;DHT22;7321;50.802;4.336;2022-10-13T03:06:36;15.20;99.90
14471;DHT22;7321;50.802;4.336;2022-10-13T03:09:02;15.30;99.90
14471;DHT22;7321;50.802;4.336;2022-10-13T03:11:28;15.20;99.90
14471;DHT22;7321;50.802;4.336;2022-10-13T03:13:55;15.10;99.90
14471;DHT22;7321;50.802;4.336;2022-10-13T03:16:21;15.10;99.90
14471;DHT22;7321;50.802;4.336;2022-10-13T03:18:46;15.10;99.90
14471;DHT22;7321;50.802;4.336;2022-10-13T03:21:12;15.10;99.90
14471;DHT22;7321;50.802;4.336;2022-10-13T03:23:38;15.20;99.90
14471;DHT22;7321;50.802;4.336;2022-10-13T03:26:04;15.20;99.90
14471;DHT22;7321;50.802;4.336;2022-10-13T03:28:30;15.30;99.90
14471;DHT22;7321;50.802;4.336;2022-10-13T03:31:06;15.20;99.90
14471;DHT22;7321;50.802;4.336;2022-10-13T03:33:35;15.20;99.90
14471;DHT22;7321;50.802;4.336;2022-10-13T03:36:03;15.20;99.90
14471;DHT22;7321;50.802;4.336;2022-10-13T03:38:30;15.20;99.90
14471;DHT22;7321;50.802;4.336;2022-10-13T03:40:56;15.10;99.90
14471;DHT22;7321;50.802;4.336;2022-10-13T03:43:23;15.10;99.90
14471;DHT22;7321;50.802;4.336;2022-10-13T03:45:56;14.90;99.90
14471;DHT22;7321;50.802;4.336;2022-10-13T03:48:23;15.00;99.90
14471;DHT22;7321;50.802;4.336;2022-10-13T03:50:49;15.10;99.90
14471;DHT22;7321;50.802;4.336;2022-10-13T03:53:15;15.10;99.90
14471;DHT22;7321;50.802;4.336;2022-10-13T03:55:41;15.10;99.90
14471;DHT22;7321;50.802;4.336;2022-10-13T03:58:07;15.20;99.90
14471;DHT22;7321;50.802;4.336;2022-10-13T04:00:36;15.20;99.90
14471;DHT22;7321;50.802;4.336;2022-10-13T04:03:01;15.30;99.90
14471;DHT22;7321;50.802;4.336;2022-10-13T04:05:27;15.20;99.90
14471;DHT22;7321;50.802;4.336;2022-10-13T04:07:53;15.20;99.90
14471;DHT22;7321;50.802;4.336;2022-10-13T04:10:18;15.20;99.90
14471;DHT22;7321;50.802;4.336;2022-10-13T04:12:47;15.30;99.90
14471;DHT22;7321;50.802;4.336;2022-10-13T04:15:13;15.20;99.90
14471;DHT22;7321;50.802;4.336;2022-10-13T04:17:39;15.20;99.90
14471;DHT22;7321;50.802;4.336;2022-10-13T04:20:05;15.20;99.90
14471;DHT22;7321;50.802;4.336;2022-10-13T04:22:31;15.10;99.90
14471;DHT22;7321;50.802;4.336;2022-10-13T04:24:57;15.30;99.90
14471;DHT22;7321;50.802;4.336;2022-10-13T04:27:22;15.30;99.90
14471;DHT22;7321;50.802;4.336;2022-10-13T04:29:48;15.30;99.90
14471;DHT22;7321;50.802;4.336;2022-10-13T04:32:14;15.30;99.90
14471;DHT22;7321;50.802;4.336;2022-10-13T04:34:40;15.30;99.90
14471;DHT22;7321;50.802;4.336;2022-10-13T04:37:05;15.30;99.90
14471;DHT22;7321;50.802;4.336;2022-10-13T04:39:31;15.30;99.90
14471;DHT22;7321;50.802;4.336;2022-10-13T04:41:58;15.20;99.90
14471;DHT22;7321;50.802;4.336;2022-10-13T04:44:24;15.20;99.90
14471;DHT22;7321;50.802;4.336;2022-10-13T04:46:49;15.10;99.90
14471;DHT22;7321;50.802;4.336;2022-10-13T04:49:16;15.20;99.90
14471;DHT22;7321;50.802;4.336;2022-10-13T04:51:41;15.30;99.90
14471;DHT22;7321;50.802;4.336;2022-10-13T04:54:13;15.30;99.90
14471;DHT22;7321;50.802;4.336;2022-10-13T04:56:39;15.40;99.90
14471;DHT22;7321;50.802;4.336;2022-10-13T04:59:04;15.50;99.90
14471;DHT22;7321;50.802;4.336;2022-10-13T05:01:31;15.40;99.90
14471;DHT22;7321;50.802;4.336;2022-10-13T05:03:59;15.40;99.90
14471;DHT22;7321;50.802;4.336;2022-10-13T05:06:32;15.30;99.90
14471;DHT22;7321;50.802;4.336;2022-10-13T05:08:58;15.20;99.90
14471;DHT22;7321;50.802;4.336;2022-10-13T05:11:25;15.20;99.90
14471;DHT22;7321;50.802;4.336;2022-10-13T05:13:52;15.20;99.90
14471;DHT22;7321;50.802;4.336;2022-10-13T05:16:19;15.30;99.90
14471;DHT22;7321;50.802;4.336;2022-10-13T05:18:47;15.30;99.90
14471;DHT22;7321;50.802;4.336;2022-10-13T05:21:18;15.30;99.90
14471;DHT22;7321;50.802;4.336;2022-10-13T05:23:45;15.30;99.90
14471;DHT22;7321;50.802;4.336;2022-10-13T05:26:16;15.30;99.90
14471;DHT22;7321;50.802;4.336;2022-10-13T05:28:42;15.30;99.90
14471;DHT22;7321;50.802;4.336;2022-10-13T05:31:17;15.20;99.90
14471;DHT22;7321;50.802;4.336;2022-10-13T05:33:44;15.20;99.90
14471;DHT22;7321;50.802;4.336;2022-10-13T05:36:12;15.20;99.90
14471;DHT22;7321;50.802;4.336;2022-10-13T05:38:38;15.30;99.90
14471;DHT22;7321;50.802;4.336;2022-10-13T05:41:06;15.30;99.90
14471;DHT22;7321;50.802;4.336;2022-10-13T05:43:32;15.30;99.90
14471;DHT22;7321;50.802;4.336;2022-10-13T05:45:59;15.30;99.90
14471;DHT22;7321;50.802;4.336;2022-10-13T05:48:25;15.30;99.90
14471;DHT22;7321;50.802;4.336;2022-10-13T05:50:52;15.30;99.90
14471;DHT22;7321;50.802;4.336;2022-10-13T05:53:19;15.30;99.90
14471;DHT22;7321;50.802;4.336;2022-10-13T05:55:46;15.40;99.90
14471;DHT22;7321;50.802;4.336;2022-10-13T05:58:12;15.30;99.90
14471;DHT22;7321;50.802;4.336;2022-10-13T06:00:39;15.30;99.90
14471;DHT22;7321;50.802;4.336;2022-10-13T06:03:10;15.30;99.90
14471;DHT22;7321;50.802;4.336;2022-10-13T06:06:07;15.40;99.90
14471;DHT22;7321;50.802;4.336;2022-10-13T06:08:33;15.40;99.90
14471;DHT22;7321;50.802;4.336;2022-10-13T06:11:01;15.30;99.90
14471;DHT22;7321;50.802;4.336;2022-10-13T06:13:27;15.30;99.90
14471;DHT22;7321;50.802;4.336;2022-10-13T06:15:53;15.20;99.90
14471;DHT22;7321;50.802;4.336;2022-10-13T06:18:19;15.30;99.90
14471;DHT22;7321;50.802;4.336;2022-10-13T06:20:44;15.40;99.90
14471;DHT22;7321;50.802;4.336;2022-10-13T06:23:10;15.40;99.90
14471;DHT22;7321;50.802;4.336;2022-10-13T06:25:36;15.40;99.90
14471;DHT22;7321;50.802;4.336;2022-10-13T06:28:02;15.30;99.90
14471;DHT22;7321;50.802;4.336;2022-10-13T06:30:27;15.30;99.90
14471;DHT22;7321;50.802;4.336;2022-10-13T06:32:54;15.20;99.90
14471;DHT22;7321;50.802;4.336;2022-10-13T06:35:25;15.20;99.90
14471;DHT22;7321;50.802;4.336;2022-10-13T06:37:50;15.20;99.90
14471;DHT22;7321;50.802;4.336;2022-10-13T06:40:17;15.10;99.90
14471;DHT22;7321;50.802;4.336;2022-10-13T06:42:48;15.20;99.90
14471;DHT22;7321;50.802;4.336;2022-10-13T06:45:14;15.30;99.90
14471;DHT22;7321;50.802;4.336;2022-10-13T06:47:40;15.30;99.90
14471;DHT22;7321;50.802;4.336;2022-10-13T06:50:05;15.40;99.90
14471;DHT22;7321;50.802;4.336;2022-10-13T06:52:31;15.50;99.90
14471;DHT22;7321;50.802;4.336;2022-10-13T06:54:57;15.50;99.90
14471;DHT22;7321;50.802;4.336;2022-10-13T06:57:23;15.50;99.90
14471;DHT22;7321;50.802;4.336;2022-10-13T06:59:48;15.60;99.90
14471;DHT22;7321;50.802;4.336;2022-10-13T07:02:14;15.60;99.90
14471;DHT22;7321;50.802;4.336;2022-10-13T07:04:40;15.60;99.90
14471;DHT22;7321;50.802;4.336;2022-10-13T07:07:06;15.60;99.90
14471;DHT22;7321;50.802;4.336;2022-10-13T07:09:31;15.70;99.90
14471;DHT22;7321;50.802;4.336;2022-10-13T07:11:57;15.50;99.90
14471;DHT22;7321;50.802;4.336;2022-10-13T07:14:23;15.50;99.90
14471;DHT22;7321;50.802;4.336;2022-10-13T07:16:49;15.60;99.90
14471;DHT22;7321;50.802;4.336;2022-10-13T07:19:14;15.70;99.90
14471;DHT22;7321;50.802;4.336;2022-10-13T07:21:40;15.80;99.90
14471;DHT22;7321;50.802;4.336;2022-10-13T07:24:06;15.80;99.90
14471;DHT22;7321;50.802;4.336;2022-10-13T07:26:34;15.70;99.90
14471;DHT22;7321;50.802;4.336;2022-10-13T07:29:01;15.70;99.90
14471;DHT22;7321;50.802;4.336;2022-10-13T07:31:27;15.60;99.90
14471;DHT22;7321;50.802;4.336;2022-10-13T07:33:53;15.60;99.90
14471;DHT22;7321;50.802;4.336;2022-10-13T07:36:21;15.60;99.90
14471;DHT22;7321;50.802;4.336;2022-10-13T07:38:47;15.60;99.90
14471;DHT22;7321;50.802;4.336;2022-10-13T07:41:13;15.60;99.90
14471;DHT22;7321;50.802;4.336;2022-10-13T07:43:40;15.60;99.90
14471;DHT22;7321;50.802;4.336;2022-10-13T07:46:06;15.70;99.90
14471;DHT22;7321;50.802;4.336;2022-10-13T07:48:35;15.70;99.90
14471;DHT22;7321;50.802;4.336;2022-10-13T07:51:12;15.70;99.90
14471;DHT22;7321;50.802;4.336;2022-10-13T07:53:39;15.80;99.90
14471;DHT22;7321;50.802;4.336;2022-10-13T07:56:07;15.70;99.90
14471;DHT22;7321;50.802;4.336;2022-10-13T07:58:36;15.80;99.90
14471;DHT22;7321;50.802;4.336;2022-10-13T08:01:05;15.90;99.90
14471;DHT22;7321;50.802;4.336;2022-10-13T08:03:31;15.80;99.90
14471;DHT22;7321;50.802;4.336;2022-10-13T08:05:58;15.90;99.90
14471;DHT22;7321;50.802;4.336;2022-10-13T08:08:24;15.80;99.90
14471;DHT22;7321;50.802;4.336;2022-10-13T08:10:50;15.80;99.90
14471;DHT22;7321;50.802;4.336;2022-10-13T08:13:16;15.90;99.90
14471;DHT22;7321;50.802;4.336;2022-10-13T08:15:42;15.90;99.90
14471;DHT22;7321;50.802;4.336;2022-10-13T08:18:10;15.90;99.90
14471;DHT22;7321;50.802;4.336;2022-10-13T08:20:41;16.00;99.90
14471;DHT22;7321;50.802;4.336;2022-10-13T08:23:07;16.10;99.90
14471;DHT22;7321;50.802;4.336;2022-10-13T08:25:41;16.10;99.90
14471;DHT22;7321;50.802;4.336;2022-10-13T08:28:22;16.10;99.90
14471;DHT22;7321;50.802;4.336;2022-10-13T08:30:48;16.20;99.90
14471;DHT22;7321;50.802;4.336;2022-10-13T08:33:15;16.40;99.90
14471;DHT22;7321;50.802;4.336;2022-10-13T08:35:41;16.50;99.90
14471;DHT22;7321;50.802;4.336;2022-10-13T08:38:09;16.60;99.90
14471;DHT22;7321;50.802;4.336;2022-10-13T08:40:37;16.70;99.90
14471;DHT22;7321;50.802;4.336;2022-10-13T08:43:07;16.70;99.90
14471;DHT22;7321;50.802;4.336;2022-10-13T08:45:34;16.70;99.90
14471;DHT22;7321;50.802;4.336;2022-10-13T08:48:03;16.60;99.90
14471;DHT22;7321;50.802;4.336;2022-10-13T08:50:35;16.70;99.90
14471;DHT22;7321;50.802;4.336;2022-10-13T08:53:27;16.70;99.90
14471;DHT22;7321;50.802;4.336;2022-10-13T08:56:01;16.60;99.90
14471;DHT22;7321;50.802;4.336;2022-10-13T08:58:32;16.60;99.90
14471;DHT22;7321;50.802;4.336;2022-10-13T09:03:54;16.60;99.90
14471;DHT22;7321;50.802;4.336;2022-10-13T09:06:29;16.60;99.90
14471;DHT22;7321;50.802;4.336;2022-10-13T09:09:02;16.60;99.90
14471;DHT22;7321;50.802;4.336;2022-10-13T09:11:34;16.70;99.90
14471;DHT22;7321;50.802;4.336;2022-10-13T09:14:02;16.80;99.90
14471;DHT22;7321;50.802;4.336;2022-10-13T09:16:33;16.80;99.90
14471;DHT22;7321;50.802;4.336;2022-10-13T09:21:43;16.70;99.90
14471;DHT22;7321;50.802;4.336;2022-10-13T09:24:14;16.80;99.90
14471;DHT22;7321;50.802;4.336;2022-10-13T09:26:40;16.80;99.90
14471;DHT22;7321;50.802;4.336;2022-10-13T09:29:10;16.90;99.90
14471;DHT22;7321;50.802;4.336;2022-10-13T09:31:36;16.90;99.90
14471;DHT22;7321;50.802;4.336;2022-10-13T09:34:21;17.10;99.90
14471;DHT22;7321;50.802;4.336;2022-10-13T09:37:02;17.00;99.90
14471;DHT22;7321;50.802;4.336;2022-10-13T09:39:30;17.00;99.90
14471;DHT22;7321;50.802;4.336;2022-10-13T09:42:28;16.90;99.90
14471;DHT22;7321;50.802;4.336;2022-10-13T09:45:07;17.10;99.90
14471;DHT22;7321;50.802;4.336;2022-10-13T09:47:37;17.20;99.90
14471;DHT22;7321;50.802;4.336;2022-10-13T09:50:27;17.20;99.90
14471;DHT22;7321;50.802;4.336;2022-10-13T09:53:16;17.40;99.90
14471;DHT22;7321;50.802;4.336;2022-10-13T09:55:43;17.50;99.90
14471;DHT22;7321;50.802;4.336;2022-10-13T09:58:26;17.50;99.90
14471;DHT22;7321;50.802;4.336;2022-10-13T10:00:53;17.50;99.90
14471;DHT22;7321;50.802;4.336;2022-10-13T10:03:30;17.60;99.90
14471;DHT22;7321;50.802;4.336;2022-10-13T10:06:03;17.70;99.90
14471;DHT22;7321;50.802;4.336;2022-10-13T10:08:51;17.80;99.90
14471;DHT22;7321;50.802;4.336;2022-10-13T10:11:37;17.80;99.90
14471;DHT22;7321;50.802;4.336;2022-10-13T10:14:31;17.80;99.90
14471;DHT22;7321;50.802;4.336;2022-10-13T10:17:34;17.80;99.90
14471;DHT22;7321;50.802;4.336;2022-10-13T10:26:03;17.60;99.90
14471;DHT22;7321;50.802;4.336;2022-10-13T10:29:12;17.50;99.90
14471;DHT22;7321;50.802;4.336;2022-10-13T10:31:39;17.40;99.90
14471;DHT22;7321;50.802;4.336;2022-10-13T10:40:09;17.30;99.90
14471;DHT22;7321;50.802;4.336;2022-10-13T10:45:16;17.10;99.90
14471;DHT22;7321;50.802;4.336;2022-10-13T10:47:45;17.00;99.90
14471;DHT22;7321;50.802;4.336;2022-10-13T10:50:15;16.90;99.90
14471;DHT22;7321;50.802;4.336;2022-10-13T10:53:03;16.70;99.90
14471;DHT22;7321;50.802;4.336;2022-10-13T10:56:36;16.60;99.90
14471;DHT22;7321;50.802;4.336;2022-10-13T11:01:35;16.40;99.90
14471;DHT22;7321;50.802;4.336;2022-10-13T11:04:43;16.40;99.90
14471;DHT22;7321;50.802;4.336;2022-10-13T11:12:22;16.00;99.90
14471;DHT22;7321;50.802;4.336;2022-10-13T11:17:29;16.10;99.90
14471;DHT22;7321;50.802;4.336;2022-10-13T11:19:56;16.00;99.90
14471;DHT22;7321;50.802;4.336;2022-10-13T11:22:26;16.00;99.90
14471;DHT22;7321;50.802;4.336;2022-10-13T11:25:01;16.10;99.90
14471;DHT22;7321;50.802;4.336;2022-10-13T11:29:58;16.20;99.90
14471;DHT22;7321;50.802;4.336;2022-10-13T11:57:24;17.20;99.90
14471;DHT22;7321;50.802;4.336;2022-10-13T11:59:53;17.20;99.90
14471;DHT22;7321;50.802;4.336;2022-10-13T12:02:24;17.10;99.90
14471;DHT22;7321;50.802;4.336;2022-10-13T12:05:05;17.00;99.90
14471;DHT22;7321;50.802;4.336;2022-10-13T12:07:39;17.10;99.90
14471;DHT22;7321;50.802;4.336;2022-10-13T12:10:07;17.10;99.90
14471;DHT22;7321;50.802;4.336;2022-10-13T12:12:33;17.00;99.90
14471;DHT22;7321;50.802;4.336;2022-10-13T12:14:59;17.10;99.90
14471;DHT22;7321;50.802;4.336;2022-10-13T12:19:53;17.00;99.90
14471;DHT22;7321;50.802;4.336;2022-10-13T12:22:19;17.10;99.90
14471;DHT22;7321;50.802;4.336;2022-10-13T12:24:58;17.00;99.90
14471;DHT22;7321;50.802;4.336;2022-10-13T12:27:25;17.00;99.90
14471;DHT22;7321;50.802;4.336;2022-10-13T12:29:52;17.10;99.90
14471;DHT22;7321;50.802;4.336;2022-10-13T12:32:26;17.10;99.90
14471;DHT22;7321;50.802;4.336;2022-10-13T12:34:53;17.10;99.90
14471;DHT22;7321;50.802;4.336;2022-10-13T12:37:31;17.30;99.90
14471;DHT22;7321;50.802;4.336;2022-10-13T12:39:59;17.50;99.90
14471;DHT22;7321;50.802;4.336;2022-10-13T12:42:31;17.70;99.90
14471;DHT22;7321;50.802;4.336;2022-10-13T12:44:58;17.90;99.90
14471;DHT22;7321;50.802;4.336;2022-10-13T12:53:02;18.40;99.90
14471;DHT22;7321;50.802;4.336;2022-10-13T12:55:30;18.30;99.90
14471;DHT22;7321;50.802;4.336;2022-10-13T12:57:56;18.20;99.90
14471;DHT22;7321;50.802;4.336;2022-10-13T13:00:24;18.10;99.90
14471;DHT22;7321;50.802;4.336;2022-10-13T13:02:56;18.00;99.90
14471;DHT22;7321;50.802;4.336;2022-10-13T13:05:35;17.90;99.90
14471;DHT22;7321;50.802;4.336;2022-10-13T13:08:02;17.60;99.90
14471;DHT22;7321;50.802;4.336;2022-10-13T13:10:28;17.50;99.90
14471;DHT22;7321;50.802;4.336;2022-10-13T13:13:11;17.40;99.90
14471;DHT22;7321;50.802;4.336;2022-10-13T13:15:38;17.30;99.90
14471;DHT22;7321;50.802;4.336;2022-10-13T13:18:37;17.10;99.90
14471;DHT22;7321;50.802;4.336;2022-10-13T13:21:05;17.00;99.90
14471;DHT22;7321;50.802;4.336;2022-10-13T13:23:34;16.90;99.90
14471;DHT22;7321;50.802;4.336;2022-10-13T13:26:10;16.80;99.90
14471;DHT22;7321;50.802;4.336;2022-10-13T13:28:41;16.80;99.90
14471;DHT22;7321;50.802;4.336;2022-10-13T13:31:10;16.70;99.90
14471;DHT22;7321;50.802;4.336;2022-10-13T13:33:37;16.70;99.90
14471;DHT22;7321;50.802;4.336;2022-10-13T13:36:03;16.60;99.90
14471;DHT22;7321;50.802;4.336;2022-10-13T13:38:30;16.70;99.90
14471;DHT22;7321;50.802;4.336;2022-10-13T13:40:58;16.60;99.90
14471;DHT22;7321;50.802;4.336;2022-10-13T13:43:24;16.60;99.90
14471;DHT22;7321;50.802;4.336;2022-10-13T13:45:50;16.60;99.90
14471;DHT22;7321;50.802;4.336;2022-10-13T13:48:15;16.50;99.90
14471;DHT22;7321;50.802;4.336;2022-10-13T13:50:41;16.40;99.90
14471;DHT22;7321;50.802;4.336;2022-10-13T13:53:08;16.50;99.90
14471;DHT22;7321;50.802;4.336;2022-10-13T13:55:34;16.60;99.90
14471;DHT22;7321;50.802;4.336;2022-10-13T13:58:00;16.60;99.90
14471;DHT22;7321;50.802;4.336;2022-10-13T14:00:29;16.60;99.90
14471;DHT22;7321;50.802;4.336;2022-10-13T14:02:56;16.70;99.90
14471;DHT22;7321;50.802;4.336;2022-10-13T14:05:22;16.80;99.90
14471;DHT22;7321;50.802;4.336;2022-10-13T14:07:48;16.90;99.90
14471;DHT22;7321;50.802;4.336;2022-10-13T14:10:13;16.90;99.90
14471;DHT22;7321;50.802;4.336;2022-10-13T14:12:39;16.80;99.90
14471;DHT22;7321;50.802;4.336;2022-10-13T14:15:06;17.00;99.90
14471;DHT22;7321;50.802;4.336;2022-10-13T14:17:32;17.10;99.90
14471;DHT22;7321;50.802;4.336;2022-10-13T14:19:57;17.00;99.90
14471;DHT22;7321;50.802;4.336;2022-10-13T14:22:23;17.00;99.90
14471;DHT22;7321;50.802;4.336;2022-10-13T14:24:49;17.00;99.90
14471;DHT22;7321;50.802;4.336;2022-10-13T14:27:15;17.10;99.90
14471;DHT22;7321;50.802;4.336;2022-10-13T14:29:40;17.20;99.90
14471;DHT22;7321;50.802;4.336;2022-10-13T14:32:06;17.20;99.90
14471;DHT22;7321;50.802;4.336;2022-10-13T14:34:32;17.10;99.90
14471;DHT22;7321;50.802;4.336;2022-10-13T14:36:58;17.20;99.90
14471;DHT22;7321;50.802;4.336;2022-10-13T14:39:24;17.30;99.90
14471;DHT22;7321;50.802;4.336;2022-10-13T14:41:49;17.20;99.90
14471;DHT22;7321;50.802;4.336;2022-10-13T14:44:15;17.10;99.90
14471;DHT22;7321;50.802;4.336;2022-10-13T14:46:41;17.10;99.90
14471;DHT22;7321;50.802;4.336;2022-10-13T14:49:09;17.00;99.90
14471;DHT22;7321;50.802;4.336;2022-10-13T14:51:35;16.90;99.90
14471;DHT22;7321;50.802;4.336;2022-10-13T14:54:00;16.60;99.90
14471;DHT22;7321;50.802;4.336;2022-10-13T14:56:28;16.60;99.90
14471;DHT22;7321;50.802;4.336;2022-10-13T14:58:58;16.60;99.90
14471;DHT22;7321;50.802;4.336;2022-10-13T15:01:25;16.60;99.90
14471;DHT22;7321;50.802;4.336;2022-10-13T15:03:51;16.50;99.90
14471;DHT22;7321;50.802;4.336;2022-10-13T15:06:19;16.50;99.90
14471;DHT22;7321;50.802;4.336;2022-10-13T15:08:45;16.60;99.90
14471;DHT22;7321;50.802;4.336;2022-10-13T15:11:12;16.50;99.90
14471;DHT22;7321;50.802;4.336;2022-10-13T15:13:39;16.50;99.90
14471;DHT22;7321;50.802;4.336;2022-10-13T15:16:06;16.50;99.90
14471;DHT22;7321;50.802;4.336;2022-10-13T15:18:33;16.50;99.90
14471;DHT22;7321;50.802;4.336;2022-10-13T15:21:00;16.40;99.90
14471;DHT22;7321;50.802;4.336;2022-10-13T15:23:27;16.40;99.90
14471;DHT22;7321;50.802;4.336;2022-10-13T15:25:59;16.40;99.90
14471;DHT22;7321;50.802;4.336;2022-10-13T15:28:36;16.40;99.90
14471;DHT22;7321;50.802;4.336;2022-10-13T15:31:03;16.60;99.90
14471;DHT22;7321;50.802;4.336;2022-10-13T15:33:29;16.40;99.90
14471;DHT22;7321;50.802;4.336;2022-10-13T15:35:55;16.30;99.90
14471;DHT22;7321;50.802;4.336;2022-10-13T15:38:21;16.40;99.90
14471;DHT22;7321;50.802;4.336;2022-10-13T15:40:50;16.40;99.90
14471;DHT22;7321;50.802;4.336;2022-10-13T15:43:17;16.40;99.90
14471;DHT22;7321;50.802;4.336;2022-10-13T15:45:46;16.30;99.90
14471;DHT22;7321;50.802;4.336;2022-10-13T15:48:20;16.20;99.90
14471;DHT22;7321;50.802;4.336;2022-10-13T15:50:46;16.20;99.90
14471;DHT22;7321;50.802;4.336;2022-10-13T15:53:11;16.20;99.90
14471;DHT22;7321;50.802;4.336;2022-10-13T15:55:38;16.20;99.90
14471;DHT22;7321;50.802;4.336;2022-10-13T15:58:05;16.20;99.90
14471;DHT22;7321;50.802;4.336;2022-10-13T16:00:31;16.20;99.90
14471;DHT22;7321;50.802;4.336;2022-10-13T16:02:57;16.20;99.90
14471;DHT22;7321;50.802;4.336;2022-10-13T16:05:25;16.20;99.90
14471;DHT22;7321;50.802;4.336;2022-10-13T16:07:51;16.10;99.90
14471;DHT22;7321;50.802;4.336;2022-10-13T16:10:20;16.00;99.90
14471;DHT22;7321;50.802;4.336;2022-10-13T16:12:45;16.10;99.90
14471;DHT22;7321;50.802;4.336;2022-10-13T16:15:11;16.20;99.90
14471;DHT22;7321;50.802;4.336;2022-10-13T16:17:37;16.10;99.90
14471;DHT22;7321;50.802;4.336;2022-10-13T16:20:04;16.10;99.90
14471;DHT22;7321;50.802;4.336;2022-10-13T16:22:31;16.00;99.90
14471;DHT22;7321;50.802;4.336;2022-10-13T16:24:57;16.00;99.90
14471;DHT22;7321;50.802;4.336;2022-10-13T16:27:23;16.00;99.90
14471;DHT22;7321;50.802;4.336;2022-10-13T16:29:51;16.00;99.90
14471;DHT22;7321;50.802;4.336;2022-10-13T16:32:20;16.00;99.90
14471;DHT22;7321;50.802;4.336;2022-10-13T16:34:48;16.00;99.90
14471;DHT22;7321;50.802;4.336;2022-10-13T16:37:14;16.00;99.90
14471;DHT22;7321;50.802;4.336;2022-10-13T16:39:40;16.00;99.90
14471;DHT22;7321;50.802;4.336;2022-10-13T16:42:06;16.00;99.90
14471;DHT22;7321;50.802;4.336;2022-10-13T16:44:34;16.10;99.90
14471;DHT22;7321;50.802;4.336;2022-10-13T16:46:59;16.10;99.90
14471;DHT22;7321;50.802;4.336;2022-10-13T16:49:29;16.10;99.90
14471;DHT22;7321;50.802;4.336;2022-10-13T16:51:58;16.20;99.90
14471;DHT22;7321;50.802;4.336;2022-10-13T16:54:24;16.20;99.90
14471;DHT22;7321;50.802;4.336;2022-10-13T16:56:53;16.10;99.90
14471;DHT22;7321;50.802;4.336;2022-10-13T16:59:21;16.20;99.90
14471;DHT22;7321;50.802;4.336;2022-10-13T17:01:47;16.20;99.90
14471;DHT22;7321;50.802;4.336;2022-10-13T17:04:15;16.10;99.90
14471;DHT22;7321;50.802;4.336;2022-10-13T17:06:44;16.00;99.90
14471;DHT22;7321;50.802;4.336;2022-10-13T17:09:13;16.10;99.90
14471;DHT22;7321;50.802;4.336;2022-10-13T17:11:39;16.10;99.90
14471;DHT22;7321;50.802;4.336;2022-10-13T17:14:05;16.00;99.90
14471;DHT22;7321;50.802;4.336;2022-10-13T17:16:31;15.90;99.90
14471;DHT22;7321;50.802;4.336;2022-10-13T17:18:58;16.00;99.90
14471;DHT22;7321;50.802;4.336;2022-10-13T17:21:23;16.10;99.90
14471;DHT22;7321;50.802;4.336;2022-10-13T17:23:49;16.20;99.90
14471;DHT22;7321;50.802;4.336;2022-10-13T17:26:16;16.10;99.90
14471;DHT22;7321;50.802;4.336;2022-10-13T17:28:42;16.10;99.90
14471;DHT22;7321;50.802;4.336;2022-10-13T17:31:21;16.10;99.90